KBOI/BOI METAR and TAF weather

Enter ICAO airport designator
Station Type Date Time Source
KBOI METAR 2018/07/20 13:53 UTC NOAA

KBOI 201353Z 18004KT 10SM CLR 19/04 A2999 RMK AO2 SLP121 T01940039


Station Type Date Time Source
KBOI Decoded METAR 2018/07/20 13:53 UTC NOAA

BOISE AIR TERMINAL, ID, United States (KBOI) 43-34N 116-14W 875M
Jul 20, 2018 - 09:53 AM EDT / 2018.07.20 1353 UTC
Wind: from the S (180 degrees) at 5 MPH (4 KT):0
Visibility: 10 mile(s):0
Sky conditions: clear
Temperature: 66.9 F (19.4 C)
Dew Point: 39.0 F (3.9 C)
Relative Humidity: 35%
Pressure (altimeter): 29.99 in. Hg (1015 hPa)
ob: KBOI 201353Z 18004KT 10SM CLR 19/04 A2999 RMK AO2 SLP121 T01940039
cycle: 14

Station Type Date Time Source
KBOI TAF 2018/07/20 12:22 UTC NOAA

TAF KBOI 201120Z 2012/2112 VRB03KT P6SM SKC
FM202100 32011KT P6SM SKC


Example: see airport list